createdAt,value
2023-05-14T00:01:24.841Z,102152.00
2023-05-14T00:03:51.334Z,102157.22
2023-05-14T00:06:17.899Z,102161.59
2023-05-14T00:08:44.305Z,102158.31
2023-05-14T00:11:10.916Z,102154.91
2023-05-14T00:13:37.549Z,102144.66
2023-05-14T00:16:04.295Z,102143.84
2023-05-14T00:18:30.877Z,102141.31
2023-05-14T00:20:57.421Z,102139.75
2023-05-14T00:23:24.066Z,102138.03
2023-05-14T00:25:50.508Z,102133.91
2023-05-14T00:28:16.952Z,102137.41
2023-05-14T00:30:43.404Z,102133.19
2023-05-14T00:33:09.894Z,102133.25
2023-05-14T00:35:36.344Z,102127.28
2023-05-14T00:38:03.431Z,102124.84
2023-05-14T00:40:30.626Z,102123.97
2023-05-14T00:42:57.264Z,102119.72
2023-05-14T00:45:23.933Z,102117.19
2023-05-14T00:47:51.136Z,102119.84
2023-05-14T00:50:17.985Z,102114.75
2023-05-14T00:52:45.004Z,102111.44
2023-05-14T00:55:16.294Z,102106.34
2023-05-14T00:57:43.022Z,102110.63
2023-05-14T01:00:09.946Z,102091.78
2023-05-14T01:02:36.504Z,102095.28
2023-05-14T01:05:03.648Z,102101.34
2023-05-14T01:08:02.023Z,102103.06
2023-05-14T01:10:38.980Z,102108.41
2023-05-14T01:13:24.691Z,102104.19
2023-05-14T01:15:52.202Z,102103.50
2023-05-14T01:18:19.613Z,102100.97
2023-05-14T01:20:46.387Z,102104.50
2023-05-14T01:23:12.772Z,102093.34
2023-05-14T01:25:39.255Z,102104.56
2023-05-14T01:28:11.430Z,102095.16
2023-05-14T01:30:43.376Z,102093.50
2023-05-14T01:33:16.318Z,102103.00
2023-05-14T01:35:43.624Z,102100.50
2023-05-14T01:38:13.937Z,102099.72
2023-05-14T01:40:41.826Z,102095.47
2023-05-14T01:43:08.735Z,102099.91
2023-05-14T01:45:36.656Z,102089.69
2023-05-14T01:48:04.989Z,102093.25
2023-05-14T01:50:31.864Z,102093.25
2023-05-14T01:52:58.437Z,102085.56
2023-05-14T01:55:25.470Z,102080.41
2023-05-14T01:57:52.729Z,102085.63
2023-05-14T02:00:20.374Z,102091.66
2023-05-14T02:02:46.828Z,102077.97
2023-05-14T02:05:13.582Z,102072.00
2023-05-14T02:07:40.314Z,102083.19
2023-05-14T02:10:07.622Z,102078.03
2023-05-14T02:12:34.094Z,102066.03
2023-05-14T02:15:00.732Z,102065.19
2023-05-14T02:17:27.246Z,102060.09
2023-05-14T02:19:53.791Z,102061.03
2023-05-14T02:22:20.283Z,102066.34
2023-05-14T02:24:46.676Z,102067.28
2023-05-14T02:27:13.456Z,102064.75
2023-05-14T02:29:39.855Z,102074.19
2023-05-14T02:32:06.637Z,102069.97
2023-05-14T02:34:34.402Z,102059.69
2023-05-14T02:37:01.090Z,102059.69
2023-05-14T02:39:27.606Z,102062.31
2023-05-14T02:41:53.978Z,102058.09
2023-05-14T02:44:20.440Z,102059.84
2023-05-14T02:46:47.456Z,102063.28
2023-05-14T02:49:13.842Z,102062.44
2023-05-14T02:51:40.373Z,102064.16
2023-05-14T02:54:07.210Z,102062.50
2023-05-14T02:56:33.603Z,102055.72
2023-05-14T02:59:00.331Z,102056.66
2023-05-14T03:01:27.124Z,102057.53
2023-05-14T03:03:54.027Z,102053.31
2023-05-14T03:06:20.504Z,102050.75
2023-05-14T03:08:46.915Z,102049.13
2023-05-14T03:11:13.445Z,102050.81
2023-05-14T03:13:39.876Z,102047.44
2023-05-14T03:16:06.581Z,102044.94
2023-05-14T03:18:34.802Z,102040.66
2023-05-14T03:21:01.418Z,102046.66
2023-05-14T03:23:27.939Z,102041.59
2023-05-14T03:25:54.375Z,102045.06
2023-05-14T03:28:20.746Z,102051.09
2023-05-14T03:30:47.294Z,102042.56
2023-05-14T03:33:13.895Z,102045.16
2023-05-14T03:35:40.340Z,102042.56
2023-05-14T03:38:07.465Z,102044.31
2023-05-14T03:40:34.018Z,102050.34
2023-05-14T03:43:00.783Z,102040.94
2023-05-14T03:45:28.663Z,102048.66
2023-05-14T03:47:55.263Z,102042.66
2023-05-14T03:50:22.005Z,102039.28
2023-05-14T03:52:48.677Z,102041.91
2023-05-14T03:55:15.025Z,102037.63
2023-05-14T03:57:41.413Z,102029.03
2023-05-14T04:00:08.715Z,102033.34
2023-05-14T04:02:35.235Z,102028.19
2023-05-14T04:05:01.703Z,102035.06
2023-05-14T04:07:28.194Z,102028.22
2023-05-14T04:09:54.560Z,102026.47
2023-05-14T04:12:21.065Z,102027.34
2023-05-14T04:14:47.542Z,102023.03
2023-05-14T04:17:13.964Z,102025.63
2023-05-14T04:19:40.539Z,102023.88
2023-05-14T04:22:06.935Z,102028.13
2023-05-14T04:24:33.393Z,102022.97
2023-05-14T04:27:00.067Z,102021.28
2023-05-14T04:29:26.533Z,102024.66
2023-05-14T04:31:53.740Z,102025.50
2023-05-14T04:34:20.265Z,102025.47
2023-05-14T04:36:46.884Z,102016.06
2023-05-14T04:39:13.301Z,102024.53
2023-05-14T04:41:39.687Z,102028.75
2023-05-14T04:44:06.937Z,102025.25
2023-05-14T04:46:33.404Z,102028.56
2023-05-14T04:48:59.864Z,102026.84
2023-05-14T04:51:26.321Z,102027.50
2023-05-14T04:53:52.703Z,102027.41
2023-05-14T04:56:19.100Z,102035.06
2023-05-14T04:58:45.498Z,102034.19
2023-05-14T05:01:12.250Z,102034.13
2023-05-14T05:03:38.739Z,102027.19
2023-05-14T05:06:05.299Z,102025.41
2023-05-14T05:08:31.839Z,102026.13
2023-05-14T05:10:58.235Z,102027.78
2023-05-14T05:13:24.734Z,102030.31
2023-05-14T05:15:51.301Z,102035.38
2023-05-14T05:18:17.818Z,102034.50
2023-05-14T05:20:44.287Z,102035.28
2023-05-14T05:23:10.924Z,102033.53
2023-05-14T05:25:37.467Z,102037.72
2023-05-14T05:28:04.096Z,102038.53
2023-05-14T05:30:30.790Z,102035.09
2023-05-14T05:32:57.680Z,102047.03
2023-05-14T05:35:24.319Z,102046.97
2023-05-14T05:37:50.947Z,102038.25
2023-05-14T05:40:17.486Z,102039.09
2023-05-14T05:42:43.875Z,102040.72
2023-05-14T05:45:10.657Z,102037.97
2023-05-14T05:47:37.178Z,102042.19
2023-05-14T05:50:04.026Z,102040.41
2023-05-14T05:52:30.709Z,102043.78
2023-05-14T05:54:57.097Z,102047.16
2023-05-14T05:57:26.201Z,102054.84
2023-05-14T05:59:53.168Z,102051.28
2023-05-14T06:02:19.988Z,102044.34
2023-05-14T06:04:46.742Z,102054.81
2023-05-14T06:07:13.122Z,102048.78
2023-05-14T06:09:39.564Z,102055.34
2023-05-14T06:12:06.385Z,102051.31
2023-05-14T06:14:32.778Z,102044.50
2023-05-14T06:16:59.257Z,102047.16
2023-05-14T06:19:25.651Z,102059.19
2023-05-14T06:21:52.007Z,102059.59
2023-05-14T06:24:20.022Z,102050.06
2023-05-14T06:26:46.512Z,102050.97
2023-05-14T06:29:12.911Z,102063.81
2023-05-14T06:31:39.555Z,102062.66
2023-05-14T06:34:06.111Z,102068.19
2023-05-14T06:36:32.503Z,102055.16
2023-05-14T06:38:58.939Z,102054.19
2023-05-14T06:41:26.169Z,102052.28
2023-05-14T06:43:52.568Z,102048.09
2023-05-14T06:46:18.970Z,102045.16
2023-05-14T06:48:45.827Z,102059.78
2023-05-14T06:51:13.285Z,102057.09
2023-05-14T06:53:40.647Z,102046.94
2023-05-14T06:56:07.796Z,102042.00
2023-05-14T06:58:34.209Z,102043.72
2023-05-14T07:01:00.738Z,102042.00
2023-05-14T07:03:27.231Z,102040.69
2023-05-14T07:05:53.647Z,102044.97
2023-05-14T07:08:20.045Z,102038.97
2023-05-14T07:10:46.457Z,102050.63
2023-05-14T07:13:12.911Z,102042.06
2023-05-14T07:15:39.349Z,102044.22
2023-05-14T07:18:05.782Z,102045.06
2023-05-14T07:20:32.212Z,102052.00
2023-05-14T07:22:58.624Z,102044.56
2023-05-14T07:25:25.091Z,102045.31
2023-05-14T07:27:51.484Z,102043.72
2023-05-14T07:30:18.305Z,102043.91
2023-05-14T07:32:45.038Z,102034.25
2023-05-14T07:35:11.837Z,102031.66
2023-05-14T07:37:38.660Z,102043.00
2023-05-14T07:40:05.652Z,102024.69
2023-05-14T07:42:36.484Z,102032.00
2023-05-14T07:45:04.668Z,102031.88
2023-05-14T07:47:31.586Z,102032.56
2023-05-14T07:49:59.670Z,102018.25
2023-05-14T07:52:26.140Z,102025.53
2023-05-14T07:54:52.895Z,102021.59
2023-05-14T07:57:20.232Z,102018.31
2023-05-14T07:59:47.864Z,102028.03
2023-05-14T08:02:16.077Z,102023.34
2023-05-14T08:04:42.592Z,102024.94
2023-05-14T08:07:09.276Z,102016.88
2023-05-14T08:09:35.848Z,102019.28
2023-05-14T08:12:02.485Z,102025.72
2023-05-14T08:14:28.857Z,102019.03
2023-05-14T08:16:55.263Z,102018.56
2023-05-14T08:19:21.817Z,102015.00
2023-05-14T08:21:48.218Z,102018.34
2023-05-14T08:24:15.033Z,102014.97
2023-05-14T08:26:41.935Z,102020.44
2023-05-14T08:29:10.015Z,102020.16
2023-05-14T08:31:37.403Z,102024.56
2023-05-14T08:34:03.817Z,102022.13
2023-05-14T08:36:30.643Z,102017.72
2023-05-14T08:38:57.123Z,102022.72
2023-05-14T08:41:23.836Z,102016.19
2023-05-14T08:44:14.082Z,102025.16
2023-05-14T08:46:41.326Z,102013.41
2023-05-14T08:49:42.658Z,102012.00
2023-05-14T08:52:10.611Z,101993.09
2023-05-14T08:54:37.308Z,102005.59
2023-05-14T08:57:05.390Z,102004.16
2023-05-14T08:59:31.812Z,102005.19
2023-05-14T09:02:02.731Z,102006.38
2023-05-14T09:04:31.592Z,101993.66
2023-05-14T09:07:01.524Z,101997.50
2023-05-14T09:09:28.536Z,101995.81
2023-05-14T09:11:54.972Z,101998.13
2023-05-14T09:14:23.870Z,101991.25
2023-05-14T09:16:51.750Z,102002.84
2023-05-14T09:19:19.600Z,101997.00
2023-05-14T09:21:47.479Z,101987.25
2023-05-14T09:24:21.471Z,101984.31
2023-05-14T09:26:51.590Z,101980.69
2023-05-14T09:29:18.287Z,101976.09
2023-05-14T09:31:45.107Z,101980.25
2023-05-14T09:34:12.213Z,101972.06
2023-05-14T09:36:38.876Z,101972.72
2023-05-14T09:39:05.808Z,101975.97
2023-05-14T09:41:32.304Z,101972.44
2023-05-14T09:43:58.758Z,101979.81
2023-05-14T09:46:30.198Z,101967.13
2023-05-14T09:48:56.988Z,101968.44
2023-05-14T09:51:23.975Z,101962.81
2023-05-14T09:53:53.227Z,101965.81
2023-05-14T09:56:21.675Z,101966.47
2023-05-14T09:58:48.621Z,101965.16
2023-05-14T10:01:18.240Z,101961.59
2023-05-14T10:03:45.026Z,101968.03
2023-05-14T10:06:13.317Z,101951.81
2023-05-14T10:08:43.825Z,101943.59
2023-05-14T10:11:21.052Z,101963.41
2023-05-14T10:13:57.039Z,101958.63
2023-05-14T10:16:31.991Z,101953.38
2023-05-14T10:19:08.009Z,101950.78
2023-05-14T10:21:36.877Z,101942.13
2023-05-14T10:24:07.638Z,101950.63
2023-05-14T10:26:39.197Z,101944.53
2023-05-14T10:29:06.430Z,101931.84
2023-05-14T10:31:56.218Z,101935.66
2023-05-14T10:34:32.595Z,101936.56
2023-05-14T10:37:01.203Z,101931.78
2023-05-14T10:39:52.293Z,101942.31
2023-05-14T10:42:21.839Z,101939.47
2023-05-14T10:44:55.462Z,101938.97
2023-05-14T10:47:22.655Z,101926.13
2023-05-14T10:49:49.490Z,101926.69
2023-05-14T10:52:19.298Z,101924.97
2023-05-14T10:54:56.411Z,101921.25
2023-05-14T10:57:24.789Z,101920.56
2023-05-14T10:59:57.112Z,101925.53
2023-05-14T11:02:27.999Z,101916.81
2023-05-14T11:05:15.727Z,101912.09
2023-05-14T11:07:44.630Z,101913.84
2023-05-14T11:10:18.942Z,101908.50
2023-05-14T11:12:47.294Z,101905.38
2023-05-14T11:15:26.031Z,101913.03
2023-05-14T11:17:53.901Z,101908.41
2023-05-14T11:20:21.285Z,101908.63
2023-05-14T11:22:49.161Z,101897.13
2023-05-14T11:25:15.812Z,101902.22
2023-05-14T11:27:46.736Z,101893.53
2023-05-14T11:30:18.397Z,101901.38
2023-05-14T11:32:46.819Z,101888.94
2023-05-14T11:35:14.037Z,101886.72
2023-05-14T11:37:40.732Z,101878.91
2023-05-14T11:40:11.996Z,101884.84
2023-05-14T11:42:38.892Z,101890.91
2023-05-14T11:45:06.222Z,101880.97
2023-05-14T11:47:32.841Z,101880.41
2023-05-14T11:50:01.041Z,101877.69
2023-05-14T11:52:27.640Z,101873.00
2023-05-14T11:54:54.068Z,101873.78
2023-05-14T11:57:21.811Z,101880.47
2023-05-14T11:59:49.715Z,101880.69
2023-05-14T12:02:18.380Z,101875.63
2023-05-14T12:04:49.503Z,101866.41
2023-05-14T12:07:16.625Z,101866.97
2023-05-14T12:09:51.493Z,101864.19
2023-05-14T12:12:20.343Z,101862.53
2023-05-14T12:14:47.652Z,101861.13
2023-05-14T12:17:22.708Z,101856.88
2023-05-14T12:19:51.271Z,101866.13
2023-05-14T12:22:19.909Z,101865.88
2023-05-14T12:24:54.470Z,101852.81
2023-05-14T12:27:24.965Z,101852.81
2023-05-14T12:30:09.133Z,101853.78
2023-05-14T12:32:42.965Z,101860.13
2023-05-14T12:35:10.181Z,101849.00
2023-05-14T12:37:37.586Z,101844.41
2023-05-14T12:40:08.934Z,101835.72
2023-05-14T12:42:35.524Z,101840.28
2023-05-14T12:45:05.378Z,101832.56
2023-05-14T12:47:32.463Z,101836.22
2023-05-14T12:49:59.002Z,101829.16
2023-05-14T12:52:36.615Z,101835.13
2023-05-14T12:55:05.314Z,101838.09
2023-05-14T12:57:32.255Z,101827.47
2023-05-14T12:59:58.894Z,101826.16
2023-05-14T13:02:25.502Z,101825.03
2023-05-14T13:04:51.920Z,101815.25
2023-05-14T13:07:18.431Z,101819.44
2023-05-14T13:09:44.887Z,101825.28
2023-05-14T13:12:11.350Z,101825.59
2023-05-14T13:14:37.760Z,101816.47
2023-05-14T13:17:04.848Z,101813.00
2023-05-14T13:19:31.704Z,101822.56
2023-05-14T13:21:58.089Z,101812.44
2023-05-14T13:24:25.067Z,101818.19
2023-05-14T13:26:51.435Z,101813.69
2023-05-14T13:29:17.802Z,101814.81
2023-05-14T13:31:44.306Z,101810.16
2023-05-14T13:34:10.733Z,101804.97
2023-05-14T13:36:39.641Z,101803.84
2023-05-14T13:39:07.263Z,101802.63
2023-05-14T13:41:35.696Z,101806.72
2023-05-14T13:44:02.124Z,101797.88
2023-05-14T13:46:28.873Z,101801.94
2023-05-14T13:48:55.343Z,101800.78
2023-05-14T13:51:23.572Z,101787.66
2023-05-14T13:53:50.167Z,101791.66
2023-05-14T13:56:16.589Z,101787.91
2023-05-14T13:58:43.057Z,101783.19
2023-05-14T14:01:09.488Z,101789.53
2023-05-14T14:03:35.955Z,101772.75
2023-05-14T14:06:02.401Z,101780.84
2023-05-14T14:08:29.026Z,101776.13
2023-05-14T14:10:55.776Z,101766.72
2023-05-14T14:13:22.737Z,101777.88
2023-05-14T14:15:49.953Z,101780.09
2023-05-14T14:18:16.552Z,101775.69
2023-05-14T14:20:43.043Z,101778.59
2023-05-14T14:23:09.523Z,101774.22
2023-05-14T14:25:35.936Z,101772.03
2023-05-14T14:28:02.406Z,101764.06
2023-05-14T14:30:28.881Z,101766.06
2023-05-14T14:32:55.760Z,101760.72
2023-05-14T14:35:23.351Z,101765.88
2023-05-14T14:37:52.217Z,101765.44
2023-05-14T14:40:18.831Z,101756.25
2023-05-14T14:42:45.559Z,101758.84
2023-05-14T14:45:12.466Z,101758.78
2023-05-14T14:47:42.736Z,101757.28
2023-05-14T14:50:10.024Z,101760.25
2023-05-14T14:52:36.663Z,101760.75
2023-05-14T14:55:03.265Z,101753.97
2023-05-14T14:57:29.641Z,101756.38
2023-05-14T14:59:56.135Z,101756.91
2023-05-14T15:02:22.884Z,101755.81
2023-05-14T15:04:49.359Z,101753.41
2023-05-14T15:07:20.232Z,101757.03
2023-05-14T15:09:46.630Z,101757.34
2023-05-14T15:12:14.286Z,101749.75
2023-05-14T15:14:40.653Z,101752.09
2023-05-14T15:17:07.249Z,101749.78
2023-05-14T15:19:33.666Z,101749.53
2023-05-14T15:22:00.124Z,101738.88
2023-05-14T15:24:26.607Z,101739.63
2023-05-14T15:26:53.644Z,101745.75
2023-05-14T15:29:20.460Z,101748.25
2023-05-14T15:31:47.086Z,101747.34
2023-05-14T15:34:13.562Z,101744.25
2023-05-14T15:36:40.101Z,101742.47
2023-05-14T15:39:06.678Z,101725.13
2023-05-14T15:41:34.413Z,101735.38
2023-05-14T15:44:00.811Z,101729.28
2023-05-14T15:46:27.351Z,101725.72
2023-05-14T15:48:53.913Z,101728.75
2023-05-14T15:51:20.358Z,101722.53
2023-05-14T15:53:46.876Z,101722.09
2023-05-14T15:56:13.274Z,101716.88
2023-05-14T15:58:39.711Z,101720.59
2023-05-14T16:01:06.120Z,101717.94
2023-05-14T16:03:32.680Z,101725.34
2023-05-14T16:05:59.686Z,101722.84
2023-05-14T16:08:26.170Z,101722.22
2023-05-14T16:10:52.646Z,101729.75
2023-05-14T16:13:19.578Z,101731.53
2023-05-14T16:15:46.513Z,101723.16
2023-05-14T16:18:12.952Z,101723.59
2023-05-14T16:20:39.340Z,101738.47
2023-05-14T16:23:05.766Z,101731.22
2023-05-14T16:25:32.204Z,101726.72
2023-05-14T16:27:58.645Z,101726.72
2023-05-14T16:30:25.312Z,101734.56
2023-05-14T16:32:51.991Z,101730.28
2023-05-14T16:35:18.535Z,101736.78
2023-05-14T16:37:45.011Z,101731.94
2023-05-14T16:40:12.164Z,101732.03
2023-05-14T16:42:39.082Z,101727.28
2023-05-14T16:45:06.280Z,101721.75
2023-05-14T16:47:32.753Z,101722.06
2023-05-14T16:49:59.171Z,101728.69
2023-05-14T16:52:25.793Z,101732.44
2023-05-14T16:54:52.196Z,101746.00
2023-05-14T16:57:18.668Z,101736.81
2023-05-14T16:59:45.202Z,101741.38
2023-05-14T17:02:11.616Z,101744.28
2023-05-14T17:04:41.966Z,101746.56
2023-05-14T17:07:08.682Z,101748.13
2023-05-14T17:09:35.773Z,101744.78
2023-05-14T17:12:02.190Z,101746.28
2023-05-14T17:14:28.596Z,101748.03
2023-05-14T17:16:55.852Z,101745.53
2023-05-14T17:19:22.540Z,101748.19
2023-05-14T17:21:49.042Z,101742.94
2023-05-14T17:24:15.800Z,101746.19
2023-05-14T17:26:42.174Z,101747.50
2023-05-14T17:29:08.532Z,101747.31
2023-05-14T17:31:35.046Z,101748.88
2023-05-14T17:34:01.515Z,101751.94
2023-05-14T17:36:28.647Z,101751.97
2023-05-14T17:38:55.179Z,101750.66
2023-05-14T17:41:21.640Z,101746.31
2023-05-14T17:43:48.101Z,101744.91
2023-05-14T17:46:14.500Z,101739.47
2023-05-14T17:48:40.956Z,101736.63
2023-05-14T17:51:07.411Z,101755.88
2023-05-14T17:53:33.823Z,101753.94
2023-05-14T17:56:00.225Z,101758.41
2023-05-14T17:58:26.789Z,101757.63
2023-05-14T18:00:53.372Z,101770.41
2023-05-14T18:03:20.711Z,101771.47
2023-05-14T18:05:47.245Z,101776.31
2023-05-14T18:08:14.476Z,101777.22
2023-05-14T18:10:41.005Z,101771.34
2023-05-14T18:13:07.511Z,101759.50
2023-05-14T18:15:35.905Z,101775.41
2023-05-14T18:18:02.492Z,101779.13
2023-05-14T18:20:29.031Z,101779.13
2023-05-14T18:22:55.548Z,101773.63
2023-05-14T18:25:22.063Z,101783.22
2023-05-14T18:27:48.609Z,101775.19
2023-05-14T18:30:15.949Z,101781.84
2023-05-14T18:32:44.686Z,101779.78
2023-05-14T18:35:11.838Z,101787.09
2023-05-14T18:37:38.560Z,101783.03
2023-05-14T18:40:06.925Z,101792.09
2023-05-14T18:42:34.143Z,101780.44
2023-05-14T18:45:01.493Z,101785.00
2023-05-14T18:47:28.163Z,101784.47
2023-05-14T18:49:57.668Z,101791.84
2023-05-14T18:52:24.538Z,101796.28
2023-05-14T18:54:50.983Z,101795.16
2023-05-14T18:57:17.436Z,101801.41
2023-05-14T18:59:44.020Z,101795.66
2023-05-14T19:02:10.836Z,101795.25
2023-05-14T19:04:50.731Z,101798.81
2023-05-14T19:07:18.860Z,101798.09
2023-05-14T19:09:45.483Z,101801.47
2023-05-14T19:12:12.355Z,101799.13
2023-05-14T19:14:38.769Z,101794.44
2023-05-14T19:17:05.767Z,101799.97
2023-05-14T19:19:32.709Z,101794.50
2023-05-14T19:21:59.111Z,101799.03
2023-05-14T19:24:25.821Z,101801.69
2023-05-14T19:26:52.394Z,101801.19
2023-05-14T19:29:18.882Z,101798.16
2023-05-14T19:31:45.366Z,101795.28
2023-05-14T19:34:11.787Z,101793.22
2023-05-14T19:36:38.250Z,101801.28
2023-05-14T19:39:04.755Z,101800.69
2023-05-14T19:41:31.546Z,101796.81
2023-05-14T19:43:58.049Z,101798.72
2023-05-14T19:46:24.584Z,101803.19
2023-05-14T19:48:51.057Z,101803.44
2023-05-14T19:51:17.429Z,101808.88
2023-05-14T19:53:43.891Z,101807.50
2023-05-14T19:56:10.474Z,101801.50
2023-05-14T19:58:36.951Z,101800.69
2023-05-14T20:01:04.319Z,101805.38
2023-05-14T20:03:30.862Z,101808.97
2023-05-14T20:05:57.962Z,101802.09
2023-05-14T20:08:24.905Z,101809.91
2023-05-14T20:10:51.457Z,101801.44
2023-05-14T20:13:17.829Z,101804.25
2023-05-14T20:15:44.242Z,101800.31
2023-05-14T20:18:10.680Z,101794.47
2023-05-14T20:20:37.375Z,101799.88
2023-05-14T20:23:03.825Z,101797.50
2023-05-14T20:25:32.572Z,101799.25
2023-05-14T20:28:00.357Z,101795.03
2023-05-14T20:30:27.593Z,101794.13
2023-05-14T20:32:54.074Z,101789.03
2023-05-14T20:35:20.532Z,101789.25
2023-05-14T20:37:47.248Z,101788.44
2023-05-14T20:40:13.787Z,101783.22
2023-05-14T20:42:40.492Z,101789.47
2023-05-14T20:45:07.338Z,101786.84
2023-05-14T20:47:34.152Z,101783.44
2023-05-14T20:50:01.247Z,101780.16
2023-05-14T20:52:27.807Z,101782.78
2023-05-14T20:54:54.258Z,101776.75
2023-05-14T20:57:20.741Z,101770.88
2023-05-14T20:59:47.560Z,101774.28
2023-05-14T21:02:14.058Z,101777.09
2023-05-14T21:04:41.034Z,101767.75
2023-05-14T21:07:07.552Z,101767.81
2023-05-14T21:09:33.985Z,101766.19
2023-05-14T21:12:00.514Z,101775.72
2023-05-14T21:14:26.891Z,101767.09
2023-05-14T21:16:53.463Z,101767.94
2023-05-14T21:19:20.072Z,101770.50
2023-05-14T21:21:47.359Z,101773.09
2023-05-14T21:24:13.898Z,101771.44
2023-05-14T21:26:41.389Z,101777.44
2023-05-14T21:29:07.804Z,101772.16
2023-05-14T21:31:34.281Z,101775.69
2023-05-14T21:34:00.802Z,101781.00
2023-05-14T21:36:27.293Z,101774.47
2023-05-14T21:38:53.885Z,101781.56
2023-05-14T21:41:21.102Z,101777.28
2023-05-14T21:43:47.588Z,101764.59
2023-05-14T21:46:14.055Z,101763.00
2023-05-14T21:48:40.577Z,101758.13
2023-05-14T21:51:07.098Z,101753.81
2023-05-14T21:53:34.640Z,101750.53
2023-05-14T21:56:01.112Z,101758.34
2023-05-14T21:58:27.724Z,101756.69
2023-05-14T22:00:54.203Z,101748.97
2023-05-14T22:03:20.831Z,101749.84
2023-05-14T22:05:47.800Z,101752.59
2023-05-14T22:08:14.298Z,101751.03
2023-05-14T22:10:40.735Z,101746.91
2023-05-14T22:13:07.115Z,101747.88
2023-05-14T22:15:34.349Z,101741.91
2023-05-14T22:18:00.931Z,101736.84
2023-05-14T22:20:27.367Z,101737.66
2023-05-14T22:22:53.953Z,101730.91
2023-05-14T22:25:20.411Z,101742.16
2023-05-14T22:27:46.814Z,101737.94
2023-05-14T22:30:13.271Z,101741.41
2023-05-14T22:32:39.732Z,101740.63
2023-05-14T22:35:06.330Z,101736.34
2023-05-14T22:37:32.722Z,101733.00
2023-05-14T22:39:59.121Z,101727.94
2023-05-14T22:42:27.186Z,101721.97
2023-05-14T22:44:53.700Z,101724.69
2023-05-14T22:47:20.217Z,101720.41
2023-05-14T22:49:46.772Z,101716.94
2023-05-14T22:52:13.171Z,101711.00
2023-05-14T22:54:39.661Z,101719.69
2023-05-14T22:57:06.621Z,101705.19
2023-05-14T22:59:33.271Z,101716.38
2023-05-14T23:01:59.743Z,101708.63
2023-05-14T23:04:26.297Z,101705.25
2023-05-14T23:06:52.843Z,101696.66
2023-05-14T23:09:19.223Z,101701.00
2023-05-14T23:11:46.184Z,101695.84
2023-05-14T23:14:12.620Z,101697.66
2023-05-14T23:16:39.441Z,101702.75
2023-05-14T23:19:06.084Z,101702.75
2023-05-14T23:21:33.018Z,101702.81
2023-05-14T23:23:59.514Z,101705.34
2023-05-14T23:26:26.082Z,101698.41
2023-05-14T23:28:52.505Z,101696.63
2023-05-14T23:31:18.973Z,101691.56
2023-05-14T23:33:46.359Z,101692.41
2023-05-14T23:36:12.957Z,101693.28
2023-05-14T23:38:40.630Z,101688.16
2023-05-14T23:41:07.102Z,101674.41
2023-05-14T23:43:33.773Z,101667.50
2023-05-14T23:46:00.920Z,101665.72
2023-05-14T23:48:27.422Z,101657.97
2023-05-14T23:50:53.832Z,101658.75
2023-05-14T23:53:20.427Z,101648.56
2023-05-14T23:55:46.957Z,101651.19
2023-05-14T23:58:13.460Z,101650.41
